Sertao Santana, Brazil
Current Conditions -  °F | °C
As of 11:00 PM on Monday 20 Oct 2014 (Local Time) from SBPA Reporting Station
Clear Clear  
Wind Chill: 63°   Ceiling: Unl
Heat Index: 63°   Visibility: 6mi
Dew Point: 55°   Wind: 6mph
Humidity: 77%   Direction: 120°ESE
Pressure: 30.18"   Gusts: NA
Location:  30.46°S, 51.6°W
Report Text: SBPA 210200Z 12005KT CAVOK 17/13 Q1022
Loading
Personal Weather Stations






























Interactive Weather Map
Tropical Storm Tracking
New forecast layout! Learn more

10-Day Weather Forecast

Advertisements
Track Severe Weather on mobile